sensor_id;sensor_type;location;lat;lon;timestamp;P1;durP1;ratioP1;P2;durP2;ratioP2
16246;SDS011;8231;50.866;7.944;2023-04-29T00:02:10;10.48;;;9.52;;
16246;SDS011;8231;50.866;7.944;2023-04-29T00:04:39;11.13;;;10.13;;
16246;SDS011;8231;50.866;7.944;2023-04-29T00:07:08;11.15;;;10.15;;
16246;SDS011;8231;50.866;7.944;2023-04-29T00:09:36;10.60;;;9.70;;
16246;SDS011;8231;50.866;7.944;2023-04-29T00:12:04;10.95;;;10.05;;
16246;SDS011;8231;50.866;7.944;2023-04-29T00:14:35;10.68;;;9.77;;
16246;SDS011;8231;50.866;7.944;2023-04-29T00:17:03;11.80;;;10.70;;
16246;SDS011;8231;50.866;7.944;2023-04-29T00:19:32;13.98;;;12.57;;
16246;SDS011;8231;50.866;7.944;2023-04-29T00:22:00;13.45;;;12.15;;
16246;SDS011;8231;50.866;7.944;2023-04-29T00:24:28;13.05;;;11.75;;
16246;SDS011;8231;50.866;7.944;2023-04-29T00:26:56;13.80;;;12.55;;
16246;SDS011;8231;50.866;7.944;2023-04-29T00:29:24;15.25;;;13.75;;
16246;SDS011;8231;50.866;7.944;2023-04-29T00:31:54;15.80;;;14.25;;
16246;SDS011;8231;50.866;7.944;2023-04-29T00:34:23;16.48;;;14.88;;
16246;SDS011;8231;50.866;7.944;2023-04-29T00:36:51;17.17;;;15.57;;
16246;SDS011;8231;50.866;7.944;2023-04-29T00:39:20;16.52;;;14.93;;
16246;SDS011;8231;50.866;7.944;2023-04-29T00:41:48;16.27;;;14.75;;
16246;SDS011;8231;50.866;7.944;2023-04-29T00:44:17;17.05;;;15.43;;
16246;SDS011;8231;50.866;7.944;2023-04-29T00:46:45;16.38;;;14.75;;
16246;SDS011;8231;50.866;7.944;2023-04-29T00:49:15;16.33;;;14.70;;
16246;SDS011;8231;50.866;7.944;2023-04-29T00:51:43;17.17;;;15.50;;
16246;SDS011;8231;50.866;7.944;2023-04-29T00:54:12;16.42;;;14.75;;
16246;SDS011;8231;50.866;7.944;2023-04-29T00:56:40;17.75;;;16.05;;
16246;SDS011;8231;50.866;7.944;2023-04-29T00:59:11;18.55;;;16.63;;
16246;SDS011;8231;50.866;7.944;2023-04-29T01:01:41;19.20;;;17.20;;
16246;SDS011;8231;50.866;7.944;2023-04-29T01:04:10;20.75;;;18.23;;
16246;SDS011;8231;50.866;7.944;2023-04-29T01:06:43;19.02;;;17.02;;
16246;SDS011;8231;50.866;7.944;2023-04-29T01:09:26;17.55;;;15.82;;
16246;SDS011;8231;50.866;7.944;2023-04-29T01:12:20;18.73;;;16.48;;
16246;SDS011;8231;50.866;7.944;2023-04-29T01:14:57;16.65;;;14.93;;
16246;SDS011;8231;50.866;7.944;2023-04-29T01:17:35;17.88;;;15.10;;
16246;SDS011;8231;50.866;7.944;2023-04-29T01:20:08;16.73;;;15.02;;
16246;SDS011;8231;50.866;7.944;2023-04-29T01:22:38;15.18;;;13.57;;
16246;SDS011;8231;50.866;7.944;2023-04-29T01:25:09;16.63;;;14.57;;
16246;SDS011;8231;50.866;7.944;2023-04-29T01:28:01;20.73;;;15.77;;
16246;SDS011;8231;50.866;7.944;2023-04-29T01:30:38;20.38;;;15.80;;
16246;SDS011;8231;50.866;7.944;2023-04-29T01:33:16;19.42;;;16.45;;
16246;SDS011;8231;50.866;7.944;2023-04-29T01:35:54;18.40;;;15.73;;
16246;SDS011;8231;50.866;7.944;2023-04-29T01:38:33;19.27;;;15.57;;
16246;SDS011;8231;50.866;7.944;2023-04-29T01:41:12;20.55;;;16.83;;
16246;SDS011;8231;50.866;7.944;2023-04-29T01:43:47;20.20;;;16.83;;
16246;SDS011;8231;50.866;7.944;2023-04-29T01:46:21;17.50;;;15.50;;
16246;SDS011;8231;50.866;7.944;2023-04-29T01:48:53;19.15;;;16.63;;
16246;SDS011;8231;50.866;7.944;2023-04-29T01:51:22;17.50;;;15.15;;
16246;SDS011;8231;50.866;7.944;2023-04-29T01:53:50;19.65;;;15.45;;
16246;SDS011;8231;50.866;7.944;2023-04-29T01:56:20;23.08;;;17.35;;
16246;SDS011;8231;50.866;7.944;2023-04-29T01:58:59;17.48;;;15.55;;
16246;SDS011;8231;50.866;7.944;2023-04-29T02:01:43;18.08;;;14.88;;
16246;SDS011;8231;50.866;7.944;2023-04-29T02:04:11;16.35;;;14.32;;
16246;SDS011;8231;50.866;7.944;2023-04-29T02:06:40;24.33;;;16.48;;
16246;SDS011;8231;50.866;7.944;2023-04-29T02:09:08;19.30;;;15.77;;
16246;SDS011;8231;50.866;7.944;2023-04-29T02:11:44;16.67;;;14.57;;
16246;SDS011;8231;50.866;7.944;2023-04-29T02:14:13;17.48;;;15.15;;
16246;SDS011;8231;50.866;7.944;2023-04-29T02:16:42;17.38;;;14.73;;
16246;SDS011;8231;50.866;7.944;2023-04-29T02:19:12;21.10;;;15.93;;
16246;SDS011;8231;50.866;7.944;2023-04-29T02:21:41;17.55;;;14.88;;
16246;SDS011;8231;50.866;7.944;2023-04-29T02:24:09;19.73;;;14.63;;
16246;SDS011;8231;50.866;7.944;2023-04-29T02:26:37;19.10;;;15.43;;
16246;SDS011;8231;50.866;7.944;2023-04-29T02:29:07;18.80;;;14.23;;
16246;SDS011;8231;50.866;7.944;2023-04-29T02:31:35;24.20;;;14.20;;
16246;SDS011;8231;50.866;7.944;2023-04-29T02:34:03;16.23;;;13.15;;
16246;SDS011;8231;50.866;7.944;2023-04-29T02:36:33;16.13;;;12.10;;
16246;SDS011;8231;50.866;7.944;2023-04-29T02:39:01;14.82;;;11.35;;
16246;SDS011;8231;50.866;7.944;2023-04-29T02:41:30;14.27;;;11.57;;
16246;SDS011;8231;50.866;7.944;2023-04-29T02:43:58;13.18;;;11.77;;
16246;SDS011;8231;50.866;7.944;2023-04-29T02:46:28;14.50;;;11.98;;
16246;SDS011;8231;50.866;7.944;2023-04-29T02:49:16;13.45;;;11.48;;
16246;SDS011;8231;50.866;7.944;2023-04-29T02:52:03;15.75;;;12.43;;
16246;SDS011;8231;50.866;7.944;2023-04-29T02:54:42;14.18;;;12.20;;
16246;SDS011;8231;50.866;7.944;2023-04-29T02:57:11;14.70;;;12.80;;
16246;SDS011;8231;50.866;7.944;2023-04-29T02:59:39;15.40;;;12.82;;
16246;SDS011;8231;50.866;7.944;2023-04-29T03:02:09;15.25;;;11.98;;
16246;SDS011;8231;50.866;7.944;2023-04-29T03:04:38;18.85;;;13.65;;
16246;SDS011;8231;50.866;7.944;2023-04-29T03:07:07;17.77;;;13.25;;
16246;SDS011;8231;50.866;7.944;2023-04-29T03:09:35;14.70;;;12.73;;
16246;SDS011;8231;50.866;7.944;2023-04-29T03:12:04;19.17;;;14.52;;
16246;SDS011;8231;50.866;7.944;2023-04-29T03:14:32;19.70;;;15.20;;
16246;SDS011;8231;50.866;7.944;2023-04-29T03:17:01;18.90;;;14.27;;
16246;SDS011;8231;50.866;7.944;2023-04-29T03:19:31;18.63;;;14.30;;
16246;SDS011;8231;50.866;7.944;2023-04-29T03:22:00;18.83;;;15.70;;
16246;SDS011;8231;50.866;7.944;2023-04-29T03:24:29;21.88;;;16.02;;
16246;SDS011;8231;50.866;7.944;2023-04-29T03:26:58;21.58;;;17.85;;
16246;SDS011;8231;50.866;7.944;2023-04-29T03:29:26;23.13;;;16.90;;
16246;SDS011;8231;50.866;7.944;2023-04-29T03:31:55;19.25;;;16.08;;
16246;SDS011;8231;50.866;7.944;2023-04-29T03:34:23;24.27;;;18.30;;
16246;SDS011;8231;50.866;7.944;2023-04-29T03:37:08;24.27;;;16.70;;
16246;SDS011;8231;50.866;7.944;2023-04-29T03:39:39;23.05;;;17.80;;
16246;SDS011;8231;50.866;7.944;2023-04-29T03:42:08;23.50;;;17.65;;
16246;SDS011;8231;50.866;7.944;2023-04-29T03:44:37;23.73;;;17.63;;
16246;SDS011;8231;50.866;7.944;2023-04-29T03:47:05;25.10;;;17.77;;
16246;SDS011;8231;50.866;7.944;2023-04-29T03:49:35;23.67;;;17.20;;
16246;SDS011;8231;50.866;7.944;2023-04-29T03:52:04;23.60;;;18.27;;
16246;SDS011;8231;50.866;7.944;2023-04-29T03:54:33;29.67;;;18.35;;
16246;SDS011;8231;50.866;7.944;2023-04-29T03:57:02;21.25;;;18.48;;
16246;SDS011;8231;50.866;7.944;2023-04-29T03:59:33;20.33;;;17.05;;
16246;SDS011;8231;50.866;7.944;2023-04-29T04:02:02;20.15;;;17.42;;
16246;SDS011;8231;50.866;7.944;2023-04-29T04:04:30;21.83;;;17.55;;
16246;SDS011;8231;50.866;7.944;2023-04-29T04:06:59;24.20;;;18.00;;
16246;SDS011;8231;50.866;7.944;2023-04-29T04:09:36;25.13;;;19.13;;
16246;SDS011;8231;50.866;7.944;2023-04-29T04:12:05;25.20;;;19.25;;
16246;SDS011;8231;50.866;7.944;2023-04-29T04:14:33;21.92;;;17.80;;
16246;SDS011;8231;50.866;7.944;2023-04-29T04:17:02;25.73;;;19.17;;
16246;SDS011;8231;50.866;7.944;2023-04-29T04:19:30;23.25;;;18.35;;
16246;SDS011;8231;50.866;7.944;2023-04-29T04:21:59;24.45;;;19.13;;
16246;SDS011;8231;50.866;7.944;2023-04-29T04:24:30;27.27;;;19.33;;
16246;SDS011;8231;50.866;7.944;2023-04-29T04:27:00;30.33;;;21.77;;
16246;SDS011;8231;50.866;7.944;2023-04-29T04:29:34;26.38;;;20.70;;
16246;SDS011;8231;50.866;7.944;2023-04-29T04:32:08;28.38;;;20.52;;
16246;SDS011;8231;50.866;7.944;2023-04-29T04:34:37;26.42;;;19.77;;
16246;SDS011;8231;50.866;7.944;2023-04-29T04:37:05;32.35;;;21.67;;
16246;SDS011;8231;50.866;7.944;2023-04-29T04:39:37;33.05;;;23.00;;
16246;SDS011;8231;50.866;7.944;2023-04-29T04:42:08;33.33;;;23.00;;
16246;SDS011;8231;50.866;7.944;2023-04-29T04:44:37;32.08;;;22.85;;
16246;SDS011;8231;50.866;7.944;2023-04-29T04:47:07;33.25;;;23.13;;
16246;SDS011;8231;50.866;7.944;2023-04-29T04:49:59;28.88;;;22.05;;
16246;SDS011;8231;50.866;7.944;2023-04-29T04:52:29;35.95;;;24.92;;
16246;SDS011;8231;50.866;7.944;2023-04-29T04:55:03;33.67;;;22.77;;
16246;SDS011;8231;50.866;7.944;2023-04-29T04:57:35;34.58;;;23.40;;
16246;SDS011;8231;50.866;7.944;2023-04-29T05:00:04;35.20;;;24.13;;
16246;SDS011;8231;50.866;7.944;2023-04-29T05:02:34;33.30;;;24.40;;
16246;SDS011;8231;50.866;7.944;2023-04-29T05:05:03;34.30;;;24.63;;
16246;SDS011;8231;50.866;7.944;2023-04-29T05:07:34;37.00;;;26.23;;
16246;SDS011;8231;50.866;7.944;2023-04-29T05:10:04;32.75;;;25.23;;
16246;SDS011;8231;50.866;7.944;2023-04-29T05:12:41;41.47;;;25.50;;
16246;SDS011;8231;50.866;7.944;2023-04-29T05:15:10;32.90;;;24.92;;
16246;SDS011;8231;50.866;7.944;2023-04-29T05:17:42;39.38;;;28.08;;
16246;SDS011;8231;50.866;7.944;2023-04-29T05:20:11;36.55;;;25.80;;
16246;SDS011;8231;50.866;7.944;2023-04-29T05:22:39;41.13;;;27.48;;
16246;SDS011;8231;50.866;7.944;2023-04-29T05:25:08;35.83;;;26.30;;
16246;SDS011;8231;50.866;7.944;2023-04-29T05:27:37;36.97;;;25.45;;
16246;SDS011;8231;50.866;7.944;2023-04-29T05:30:11;41.03;;;26.92;;
16246;SDS011;8231;50.866;7.944;2023-04-29T05:32:39;38.90;;;26.58;;
16246;SDS011;8231;50.866;7.944;2023-04-29T05:35:12;39.85;;;28.05;;
16246;SDS011;8231;50.866;7.944;2023-04-29T05:37:41;41.47;;;28.50;;
16246;SDS011;8231;50.866;7.944;2023-04-29T05:40:20;41.28;;;28.15;;
16246;SDS011;8231;50.866;7.944;2023-04-29T05:42:50;42.03;;;28.77;;
16246;SDS011;8231;50.866;7.944;2023-04-29T05:45:19;43.42;;;28.95;;
16246;SDS011;8231;50.866;7.944;2023-04-29T05:47:48;37.50;;;25.80;;
16246;SDS011;8231;50.866;7.944;2023-04-29T05:50:17;39.83;;;27.33;;
16246;SDS011;8231;50.866;7.944;2023-04-29T05:52:45;44.97;;;28.23;;
16246;SDS011;8231;50.866;7.944;2023-04-29T05:55:14;39.38;;;26.23;;
16246;SDS011;8231;50.866;7.944;2023-04-29T05:57:43;42.00;;;27.70;;
16246;SDS011;8231;50.866;7.944;2023-04-29T06:00:12;39.95;;;26.65;;
16246;SDS011;8231;50.866;7.944;2023-04-29T06:02:42;39.22;;;25.63;;
16246;SDS011;8231;50.866;7.944;2023-04-29T06:05:25;37.25;;;23.95;;
16246;SDS011;8231;50.866;7.944;2023-04-29T06:08:13;38.30;;;24.23;;
16246;SDS011;8231;50.866;7.944;2023-04-29T06:11:02;33.80;;;22.50;;
16246;SDS011;8231;50.866;7.944;2023-04-29T06:13:31;32.17;;;22.10;;
16246;SDS011;8231;50.866;7.944;2023-04-29T06:15:59;29.85;;;20.90;;
16246;SDS011;8231;50.866;7.944;2023-04-29T06:18:33;33.40;;;21.50;;
16246;SDS011;8231;50.866;7.944;2023-04-29T06:21:01;31.40;;;21.02;;
16246;SDS011;8231;50.866;7.944;2023-04-29T06:23:29;31.48;;;20.45;;
16246;SDS011;8231;50.866;7.944;2023-04-29T06:26:02;25.38;;;18.85;;
16246;SDS011;8231;50.866;7.944;2023-04-29T06:28:30;29.55;;;19.95;;
16246;SDS011;8231;50.866;7.944;2023-04-29T06:30:59;25.17;;;17.90;;
16246;SDS011;8231;50.866;7.944;2023-04-29T06:33:32;26.92;;;19.00;;
16246;SDS011;8231;50.866;7.944;2023-04-29T06:36:00;26.02;;;16.98;;
16246;SDS011;8231;50.866;7.944;2023-04-29T06:38:39;24.65;;;16.80;;
16246;SDS011;8231;50.866;7.944;2023-04-29T06:41:20;22.88;;;15.60;;
16246;SDS011;8231;50.866;7.944;2023-04-29T06:44:03;22.80;;;16.27;;
16246;SDS011;8231;50.866;7.944;2023-04-29T06:46:37;25.90;;;17.23;;
16246;SDS011;8231;50.866;7.944;2023-04-29T06:49:17;22.00;;;15.75;;
16246;SDS011;8231;50.866;7.944;2023-04-29T06:51:47;20.15;;;15.68;;
16246;SDS011;8231;50.866;7.944;2023-04-29T06:54:16;18.58;;;14.82;;
16246;SDS011;8231;50.866;7.944;2023-04-29T06:56:44;20.17;;;15.35;;
16246;SDS011;8231;50.866;7.944;2023-04-29T06:59:16;19.60;;;14.63;;
16246;SDS011;8231;50.866;7.944;2023-04-29T07:01:44;16.77;;;13.75;;
16246;SDS011;8231;50.866;7.944;2023-04-29T07:04:19;17.40;;;12.45;;
16246;SDS011;8231;50.866;7.944;2023-04-29T07:06:47;17.60;;;12.45;;
16246;SDS011;8231;50.866;7.944;2023-04-29T07:09:16;16.05;;;11.75;;
16246;SDS011;8231;50.866;7.944;2023-04-29T07:11:44;12.82;;;11.45;;
16246;SDS011;8231;50.866;7.944;2023-04-29T07:14:13;15.30;;;11.65;;
16246;SDS011;8231;50.866;7.944;2023-04-29T07:16:41;14.70;;;12.13;;
16246;SDS011;8231;50.866;7.944;2023-04-29T07:19:09;14.18;;;11.43;;
16246;SDS011;8231;50.866;7.944;2023-04-29T07:21:39;14.07;;;11.50;;
16246;SDS011;8231;50.866;7.944;2023-04-29T07:24:07;16.40;;;12.43;;
16246;SDS011;8231;50.866;7.944;2023-04-29T07:26:36;16.58;;;12.45;;
16246;SDS011;8231;50.866;7.944;2023-04-29T07:29:05;17.17;;;12.82;;
16246;SDS011;8231;50.866;7.944;2023-04-29T07:31:34;15.35;;;11.27;;
16246;SDS011;8231;50.866;7.944;2023-04-29T07:34:04;14.23;;;11.45;;
16246;SDS011;8231;50.866;7.944;2023-04-29T07:36:32;13.73;;;11.18;;
16246;SDS011;8231;50.866;7.944;2023-04-29T07:39:02;12.70;;;10.32;;
16246;SDS011;8231;50.866;7.944;2023-04-29T07:41:31;10.93;;;9.77;;
16246;SDS011;8231;50.866;7.944;2023-04-29T07:44:02;11.23;;;9.20;;
16246;SDS011;8231;50.866;7.944;2023-04-29T07:46:31;10.82;;;9.73;;
16246;SDS011;8231;50.866;7.944;2023-04-29T07:48:59;12.43;;;8.90;;
16246;SDS011;8231;50.866;7.944;2023-04-29T07:51:27;9.63;;;8.63;;
16246;SDS011;8231;50.866;7.944;2023-04-29T07:53:56;13.45;;;9.77;;
16246;SDS011;8231;50.866;7.944;2023-04-29T07:56:25;8.80;;;7.90;;
16246;SDS011;8231;50.866;7.944;2023-04-29T07:58:54;9.80;;;8.57;;
16246;SDS011;8231;50.866;7.944;2023-04-29T08:01:22;10.18;;;8.43;;
16246;SDS011;8231;50.866;7.944;2023-04-29T08:03:51;10.00;;;7.72;;
16246;SDS011;8231;50.866;7.944;2023-04-29T08:06:21;9.65;;;8.35;;
16246;SDS011;8231;50.866;7.944;2023-04-29T08:08:49;9.10;;;8.02;;
16246;SDS011;8231;50.866;7.944;2023-04-29T08:11:18;7.95;;;6.85;;
16246;SDS011;8231;50.866;7.944;2023-04-29T08:13:51;7.93;;;7.13;;
16246;SDS011;8231;50.866;7.944;2023-04-29T08:16:20;8.95;;;8.05;;
16246;SDS011;8231;50.866;7.944;2023-04-29T08:18:51;8.02;;;7.32;;
16246;SDS011;8231;50.866;7.944;2023-04-29T08:21:20;7.95;;;7.15;;
16246;SDS011;8231;50.866;7.944;2023-04-29T08:23:48;8.55;;;7.43;;
16246;SDS011;8231;50.866;7.944;2023-04-29T08:26:17;6.82;;;5.70;;
16246;SDS011;8231;50.866;7.944;2023-04-29T08:28:45;7.38;;;6.57;;
16246;SDS011;8231;50.866;7.944;2023-04-29T08:31:18;7.88;;;6.53;;
16246;SDS011;8231;50.866;7.944;2023-04-29T08:33:47;6.25;;;5.72;;
16246;SDS011;8231;50.866;7.944;2023-04-29T08:36:16;7.25;;;6.57;;
16246;SDS011;8231;50.866;7.944;2023-04-29T08:38:44;9.32;;;8.43;;
16246;SDS011;8231;50.866;7.944;2023-04-29T08:41:14;9.07;;;7.97;;
16246;SDS011;8231;50.866;7.944;2023-04-29T08:43:43;11.65;;;6.82;;
16246;SDS011;8231;50.866;7.944;2023-04-29T08:46:11;7.75;;;6.90;;
16246;SDS011;8231;50.866;7.944;2023-04-29T08:48:41;8.25;;;7.45;;
16246;SDS011;8231;50.866;7.944;2023-04-29T08:51:11;7.63;;;6.82;;
16246;SDS011;8231;50.866;7.944;2023-04-29T08:53:39;8.95;;;7.90;;
16246;SDS011;8231;50.866;7.944;2023-04-29T08:56:08;9.57;;;8.15;;
16246;SDS011;8231;50.866;7.944;2023-04-29T08:58:43;9.38;;;8.48;;
16246;SDS011;8231;50.866;7.944;2023-04-29T09:01:11;9.15;;;8.27;;
16246;SDS011;8231;50.866;7.944;2023-04-29T09:03:43;9.32;;;8.23;;
16246;SDS011;8231;50.866;7.944;2023-04-29T09:06:18;12.90;;;10.23;;
16246;SDS011;8231;50.866;7.944;2023-04-29T09:08:47;11.23;;;10.07;;
16246;SDS011;8231;50.866;7.944;2023-04-29T09:11:15;9.88;;;8.98;;
16246;SDS011;8231;50.866;7.944;2023-04-29T09:13:46;11.05;;;9.93;;
16246;SDS011;8231;50.866;7.944;2023-04-29T09:16:14;18.42;;;11.48;;
16246;SDS011;8231;50.866;7.944;2023-04-29T09:18:45;15.45;;;13.45;;
16246;SDS011;8231;50.866;7.944;2023-04-29T09:21:16;21.23;;;16.17;;
16246;SDS011;8231;50.866;7.944;2023-04-29T09:23:48;18.38;;;16.23;;
16246;SDS011;8231;50.866;7.944;2023-04-29T09:26:18;20.17;;;16.35;;
16246;SDS011;8231;50.866;7.944;2023-04-29T09:28:48;23.90;;;19.27;;
16246;SDS011;8231;50.866;7.944;2023-04-29T09:31:35;20.45;;;16.65;;
16246;SDS011;8231;50.866;7.944;2023-04-29T09:34:06;24.50;;;18.60;;
16246;SDS011;8231;50.866;7.944;2023-04-29T09:36:43;21.20;;;16.90;;
16246;SDS011;8231;50.866;7.944;2023-04-29T09:39:14;19.48;;;16.20;;
16246;SDS011;8231;50.866;7.944;2023-04-29T09:41:57;23.63;;;19.08;;
16246;SDS011;8231;50.866;7.944;2023-04-29T09:44:29;21.20;;;17.80;;
16246;SDS011;8231;50.866;7.944;2023-04-29T09:47:03;25.17;;;20.25;;
16246;SDS011;8231;50.866;7.944;2023-04-29T09:49:34;22.13;;;18.63;;
16246;SDS011;8231;50.866;7.944;2023-04-29T09:52:05;24.42;;;19.45;;
16246;SDS011;8231;50.866;7.944;2023-04-29T09:54:36;25.80;;;20.00;;
16246;SDS011;8231;50.866;7.944;2023-04-29T09:57:06;23.70;;;19.88;;
16246;SDS011;8231;50.866;7.944;2023-04-29T09:59:36;21.35;;;18.05;;
16246;SDS011;8231;50.866;7.944;2023-04-29T10:02:10;22.58;;;18.40;;
16246;SDS011;8231;50.866;7.944;2023-04-29T10:04:43;21.42;;;18.33;;
16246;SDS011;8231;50.866;7.944;2023-04-29T10:07:16;19.67;;;17.17;;
16246;SDS011;8231;50.866;7.944;2023-04-29T10:09:45;18.10;;;15.02;;
16246;SDS011;8231;50.866;7.944;2023-04-29T10:12:15;18.58;;;15.57;;
16246;SDS011;8231;50.866;7.944;2023-04-29T10:14:47;17.45;;;14.95;;
16246;SDS011;8231;50.866;7.944;2023-04-29T10:17:31;17.02;;;15.07;;
16246;SDS011;8231;50.866;7.944;2023-04-29T10:20:07;16.70;;;14.50;;
16246;SDS011;8231;50.866;7.944;2023-04-29T10:22:43;15.95;;;14.25;;
16246;SDS011;8231;50.866;7.944;2023-04-29T10:25:13;15.43;;;13.75;;
16246;SDS011;8231;50.866;7.944;2023-04-29T10:27:43;16.90;;;14.55;;
16246;SDS011;8231;50.866;7.944;2023-04-29T10:30:12;13.88;;;12.15;;
16246;SDS011;8231;50.866;7.944;2023-04-29T10:32:42;12.88;;;11.50;;
16246;SDS011;8231;50.866;7.944;2023-04-29T10:35:19;12.52;;;11.15;;
16246;SDS011;8231;50.866;7.944;2023-04-29T10:37:51;14.07;;;12.13;;
16246;SDS011;8231;50.866;7.944;2023-04-29T10:40:21;15.00;;;12.05;;
16246;SDS011;8231;50.866;7.944;2023-04-29T10:42:56;14.30;;;12.65;;
16246;SDS011;8231;50.866;7.944;2023-04-29T10:45:25;13.35;;;11.85;;
16246;SDS011;8231;50.866;7.944;2023-04-29T10:48:08;12.75;;;11.35;;
16246;SDS011;8231;50.866;7.944;2023-04-29T10:50:41;12.18;;;10.98;;
16246;SDS011;8231;50.866;7.944;2023-04-29T10:53:29;12.23;;;10.35;;
16246;SDS011;8231;50.866;7.944;2023-04-29T10:55:59;11.52;;;9.65;;
16246;SDS011;8231;50.866;7.944;2023-04-29T10:58:35;10.95;;;9.80;;
16246;SDS011;8231;50.866;7.944;2023-04-29T11:01:12;10.02;;;8.57;;
16246;SDS011;8231;50.866;7.944;2023-04-29T11:03:45;11.50;;;8.80;;
16246;SDS011;8231;50.866;7.944;2023-04-29T11:06:17;10.68;;;9.13;;
16246;SDS011;8231;50.866;7.944;2023-04-29T11:08:45;9.93;;;9.02;;
16246;SDS011;8231;50.866;7.944;2023-04-29T11:11:14;11.15;;;9.13;;
16246;SDS011;8231;50.866;7.944;2023-04-29T11:13:42;9.98;;;8.45;;
16246;SDS011;8231;50.866;7.944;2023-04-29T11:16:13;9.70;;;8.70;;
16246;SDS011;8231;50.866;7.944;2023-04-29T11:21:36;8.02;;;7.07;;
16246;SDS011;8231;50.866;7.944;2023-04-29T11:24:05;8.48;;;7.68;;
16246;SDS011;8231;50.866;7.944;2023-04-29T11:26:33;11.02;;;9.60;;
16246;SDS011;8231;50.866;7.944;2023-04-29T11:29:03;12.98;;;11.52;;
16246;SDS011;8231;50.866;7.944;2023-04-29T11:31:33;9.30;;;8.25;;
16246;SDS011;8231;50.866;7.944;2023-04-29T11:34:02;9.00;;;8.20;;
16246;SDS011;8231;50.866;7.944;2023-04-29T11:36:32;9.95;;;8.95;;
16246;SDS011;8231;50.866;7.944;2023-04-29T11:39:02;8.70;;;7.90;;
16246;SDS011;8231;50.866;7.944;2023-04-29T11:41:31;7.68;;;6.97;;
16246;SDS011;8231;50.866;7.944;2023-04-29T11:44:01;8.73;;;7.03;;
16246;SDS011;8231;50.866;7.944;2023-04-29T11:46:32;7.43;;;6.72;;
16246;SDS011;8231;50.866;7.944;2023-04-29T11:49:01;8.27;;;7.47;;
16246;SDS011;8231;50.866;7.944;2023-04-29T11:51:29;7.82;;;7.13;;
16246;SDS011;8231;50.866;7.944;2023-04-29T11:53:58;8.90;;;7.80;;
16246;SDS011;8231;50.866;7.944;2023-04-29T11:56:27;10.43;;;8.75;;
16246;SDS011;8231;50.866;7.944;2023-04-29T11:58:56;9.35;;;6.80;;
16246;SDS011;8231;50.866;7.944;2023-04-29T12:01:26;7.65;;;6.90;;
16246;SDS011;8231;50.866;7.944;2023-04-29T12:03:56;9.98;;;8.98;;
16246;SDS011;8231;50.866;7.944;2023-04-29T12:06:27;9.45;;;8.57;;
16246;SDS011;8231;50.866;7.944;2023-04-29T12:08:57;10.00;;;9.00;;
16246;SDS011;8231;50.866;7.944;2023-04-29T12:11:28;10.18;;;8.80;;
16246;SDS011;8231;50.866;7.944;2023-04-29T12:13:57;11.63;;;9.45;;
16246;SDS011;8231;50.866;7.944;2023-04-29T12:16:28;10.45;;;9.32;;
16246;SDS011;8231;50.866;7.944;2023-04-29T12:18:57;10.38;;;9.27;;
16246;SDS011;8231;50.866;7.944;2023-04-29T12:21:26;11.00;;;9.90;;
16246;SDS011;8231;50.866;7.944;2023-04-29T12:23:57;10.93;;;9.82;;
16246;SDS011;8231;50.866;7.944;2023-04-29T12:26:26;11.13;;;9.93;;
16246;SDS011;8231;50.866;7.944;2023-04-29T12:28:57;11.70;;;10.52;;
16246;SDS011;8231;50.866;7.944;2023-04-29T12:31:31;11.30;;;10.23;;
16246;SDS011;8231;50.866;7.944;2023-04-29T12:34:02;10.85;;;9.77;;
16246;SDS011;8231;50.866;7.944;2023-04-29T12:36:34;13.50;;;10.95;;
16246;SDS011;8231;50.866;7.944;2023-04-29T12:39:04;13.32;;;10.32;;
16246;SDS011;8231;50.866;7.944;2023-04-29T12:41:38;11.98;;;10.73;;
16246;SDS011;8231;50.866;7.944;2023-04-29T12:44:09;12.40;;;11.18;;
16246;SDS011;8231;50.866;7.944;2023-04-29T12:46:39;12.93;;;11.60;;
16246;SDS011;8231;50.866;7.944;2023-04-29T12:49:08;14.52;;;12.80;;
16246;SDS011;8231;50.866;7.944;2023-04-29T12:51:37;14.55;;;12.98;;
16246;SDS011;8231;50.866;7.944;2023-04-29T12:54:06;14.52;;;12.00;;
16246;SDS011;8231;50.866;7.944;2023-04-29T12:56:34;14.30;;;12.65;;
16246;SDS011;8231;50.866;7.944;2023-04-29T12:59:05;13.57;;;11.88;;
16246;SDS011;8231;50.866;7.944;2023-04-29T13:01:35;12.10;;;10.80;;
16246;SDS011;8231;50.866;7.944;2023-04-29T13:04:04;13.32;;;11.65;;
16246;SDS011;8231;50.866;7.944;2023-04-29T13:06:34;12.52;;;11.23;;
16246;SDS011;8231;50.866;7.944;2023-04-29T13:09:08;14.20;;;12.57;;
16246;SDS011;8231;50.866;7.944;2023-04-29T13:11:44;11.98;;;10.73;;
16246;SDS011;8231;50.866;7.944;2023-04-29T13:14:15;12.65;;;10.82;;
16246;SDS011;8231;50.866;7.944;2023-04-29T13:16:44;12.80;;;11.43;;
16246;SDS011;8231;50.866;7.944;2023-04-29T13:19:12;12.43;;;10.60;;
16246;SDS011;8231;50.866;7.944;2023-04-29T13:22:00;12.27;;;10.38;;
16246;SDS011;8231;50.866;7.944;2023-04-29T13:24:29;12.18;;;10.15;;
16246;SDS011;8231;50.866;7.944;2023-04-29T13:26:58;11.52;;;10.32;;
16246;SDS011;8231;50.866;7.944;2023-04-29T13:29:30;13.90;;;10.45;;
16246;SDS011;8231;50.866;7.944;2023-04-29T13:31:58;13.00;;;11.63;;
16246;SDS011;8231;50.866;7.944;2023-04-29T13:34:26;11.32;;;9.88;;
16246;SDS011;8231;50.866;7.944;2023-04-29T13:36:54;12.25;;;10.98;;
16246;SDS011;8231;50.866;7.944;2023-04-29T13:39:23;11.75;;;9.85;;
16246;SDS011;8231;50.866;7.944;2023-04-29T13:41:51;12.18;;;10.98;;
16246;SDS011;8231;50.866;7.944;2023-04-29T13:44:24;13.13;;;10.30;;
16246;SDS011;8231;50.866;7.944;2023-04-29T13:47:14;11.27;;;10.20;;
16246;SDS011;8231;50.866;7.944;2023-04-29T13:49:50;12.25;;;11.05;;
16246;SDS011;8231;50.866;7.944;2023-04-29T13:52:38;20.83;;;13.02;;
16246;SDS011;8231;50.866;7.944;2023-04-29T13:55:09;13.95;;;12.65;;
16246;SDS011;8231;50.866;7.944;2023-04-29T13:57:40;16.48;;;13.02;;
16246;SDS011;8231;50.866;7.944;2023-04-29T14:00:12;13.48;;;12.07;;
16246;SDS011;8231;50.866;7.944;2023-04-29T14:03:03;13.32;;;12.00;;
16246;SDS011;8231;50.866;7.944;2023-04-29T14:05:32;15.13;;;13.48;;
16246;SDS011;8231;50.866;7.944;2023-04-29T14:08:01;14.40;;;12.90;;
16246;SDS011;8231;50.866;7.944;2023-04-29T14:10:29;14.95;;;13.45;;
16246;SDS011;8231;50.866;7.944;2023-04-29T14:12:58;15.57;;;14.07;;
16246;SDS011;8231;50.866;7.944;2023-04-29T14:15:26;17.45;;;15.15;;
16246;SDS011;8231;50.866;7.944;2023-04-29T14:17:55;16.48;;;14.88;;
16246;SDS011;8231;50.866;7.944;2023-04-29T14:20:24;16.02;;;14.43;;
16246;SDS011;8231;50.866;7.944;2023-04-29T14:22:52;16.08;;;14.35;;
16246;SDS011;8231;50.866;7.944;2023-04-29T14:25:21;16.98;;;15.27;;
16246;SDS011;8231;50.866;7.944;2023-04-29T14:27:49;16.50;;;14.75;;
16246;SDS011;8231;50.866;7.944;2023-04-29T14:30:17;18.20;;;15.85;;
16246;SDS011;8231;50.866;7.944;2023-04-29T14:32:45;17.42;;;15.70;;
16246;SDS011;8231;50.866;7.944;2023-04-29T14:35:13;17.25;;;15.55;;
16246;SDS011;8231;50.866;7.944;2023-04-29T14:37:43;16.85;;;15.05;;
16246;SDS011;8231;50.866;7.944;2023-04-29T14:40:12;16.40;;;14.80;;
16246;SDS011;8231;50.866;7.944;2023-04-29T14:42:40;16.63;;;15.13;;
16246;SDS011;8231;50.866;7.944;2023-04-29T14:45:09;17.70;;;15.90;;
16246;SDS011;8231;50.866;7.944;2023-04-29T14:47:38;18.25;;;16.35;;
16246;SDS011;8231;50.866;7.944;2023-04-29T14:50:07;18.73;;;16.48;;
16246;SDS011;8231;50.866;7.944;2023-04-29T14:52:36;17.15;;;15.35;;
16246;SDS011;8231;50.866;7.944;2023-04-29T14:55:06;16.83;;;14.98;;
16246;SDS011;8231;50.866;7.944;2023-04-29T14:57:34;17.58;;;15.80;;
16246;SDS011;8231;50.866;7.944;2023-04-29T15:00:04;16.70;;;15.00;;
16246;SDS011;8231;50.866;7.944;2023-04-29T15:02:34;16.30;;;14.60;;
16246;SDS011;8231;50.866;7.944;2023-04-29T15:05:02;16.35;;;14.82;;